Time;durP1;ratioP1;P1;durP2;ratioP2;P2;SDS_P1;SDS_P2;PMS_P1;PMS_P2;Temp;Humidity;BMP_temperature;BMP_pressure;BME280_temperature;BME280_humidity;BME280_pressure;Samples;Min_cycle;Max_cycle;Signal;HPM_P1;HPM_P2
2024/01/15 06:00:26;;;;;;;19.27;12.70;;;;;;;;;;1744662;28;20819;-80
2024/01/15 06:01:17;;;;;;;17.70;13.02;;;;;;;;;;1744245;28;20465;-81
2024/01/15 06:02:08;;;;;;;19.25;12.68;;;;;;;;;;1743098;28;20207;-82
2024/01/15 06:03:00;;;;;;;19.33;12.45;;;;;;;;;;1743256;28;20282;-81
2024/01/15 06:03:51;;;;;;;19.85;12.90;;;;;;;;;;1743474;28;20218;-80
2024/01/15 06:04:43;;;;;;;17.33;12.02;;;;;;;;;;1744230;28;20203;-80
2024/01/15 06:05:35;;;;;;;18.48;12.55;;;;;;;;;;1744270;28;20218;-80
2024/01/15 06:06:26;;;;;;;16.77;12.23;;;;;;;;;;1744418;28;20207;-80
2024/01/15 06:07:17;;;;;;;17.45;12.25;;;;;;;;;;1744700;28;20199;-80
2024/01/15 06:08:09;;;;;;;18.33;12.52;;;;;;;;;;1743916;28;20234;-79
2024/01/15 06:09:05;;;;;;;20.48;12.98;;;;;;;;;;1744024;28;20231;-79
2024/01/15 06:09:56;;;;;;;18.75;12.57;;;;;;;;;;1743830;28;20290;-80
2024/01/15 06:10:48;;;;;;;16.83;12.07;;;;;;;;;;1743029;28;20674;-78
2024/01/15 06:11:39;;;;;;;17.63;11.50;;;;;;;;;;1743648;28;20195;-80
2024/01/15 06:12:32;;;;;;;16.33;11.30;;;;;;;;;;1744399;28;20195;-81
2024/01/15 06:13:24;;;;;;;19.02;12.80;;;;;;;;;;1744696;28;20206;-81
2024/01/15 06:14:15;;;;;;;18.02;12.80;;;;;;;;;;1744505;28;20660;-81
2024/01/15 06:15:06;;;;;;;14.70;10.90;;;;;;;;;;1744683;28;20227;-80
2024/01/15 06:15:59;;;;;;;18.55;12.50;;;;;;;;;;1744540;28;20563;-80
2024/01/15 06:16:51;;;;;;;18.15;11.80;;;;;;;;;;1742263;28;20203;-81
2024/01/15 06:17:42;;;;;;;17.35;12.93;;;;;;;;;;1745215;28;20263;-81
2024/01/15 06:18:34;;;;;;;17.13;12.50;;;;;;;;;;1744547;28;20217;-81
2024/01/15 06:19:25;;;;;;;17.95;12.25;;;;;;;;;;1744458;28;20208;-80
2024/01/15 06:20:17;;;;;;;15.85;11.43;;;;;;;;;;1743733;28;20294;-80
2024/01/15 06:21:10;;;;;;;18.70;13.10;;;;;;;;;;1744504;28;20211;-79
2024/01/15 06:22:02;;;;;;;16.48;11.40;;;;;;;;;;1744436;28;20595;-80
2024/01/15 06:22:53;;;;;;;16.98;12.43;;;;;;;;;;1744279;28;20687;-80
2024/01/15 06:23:44;;;;;;;18.88;12.13;;;;;;;;;;1744475;28;20199;-80
2024/01/15 06:24:36;;;;;;;16.67;12.23;;;;;;;;;;1744562;28;20195;-79
2024/01/15 06:25:27;;;;;;;17.50;12.02;;;;;;;;;;1744431;28;20195;-80
2024/01/15 06:26:18;;;;;;;17.67;11.60;;;;;;;;;;1743337;28;20210;-84
2024/01/15 06:27:10;;;;;;;16.50;11.55;;;;;;;;;;1742718;28;20195;-83
2024/01/15 06:28:01;;;;;;;19.20;12.77;;;;;;;;;;1742718;28;20199;-83
2024/01/15 06:28:53;;;;;;;15.98;11.43;;;;;;;;;;1743570;28;20273;-82
2024/01/15 06:29:47;;;;;;;17.58;12.05;;;;;;;;;;1742851;28;20199;-83
2024/01/15 06:30:38;;;;;;;18.77;12.20;;;;;;;;;;1743762;28;20639;-82
2024/01/15 06:31:32;;;;;;;18.13;11.95;;;;;;;;;;1743408;28;20195;-82
2024/01/15 06:32:23;;;;;;;16.27;11.30;;;;;;;;;;1743850;28;20195;-82
2024/01/15 06:33:15;;;;;;;14.50;10.82;;;;;;;;;;1743802;28;20210;-82
2024/01/15 06:34:06;;;;;;;18.55;11.38;;;;;;;;;;1743391;28;20200;-82
2024/01/15 06:34:57;;;;;;;17.30;11.70;;;;;;;;;;1742770;28;20199;-83
2024/01/15 06:35:49;;;;;;;18.45;11.50;;;;;;;;;;1742453;28;20694;-82
2024/01/15 06:36:40;;;;;;;18.25;12.18;;;;;;;;;;1743033;28;20207;-82
2024/01/15 06:37:32;;;;;;;16.15;11.70;;;;;;;;;;1743446;28;20211;-83
2024/01/15 06:38:25;;;;;;;17.73;12.40;;;;;;;;;;1743410;28;20222;-83
2024/01/15 06:39:16;;;;;;;17.08;11.70;;;;;;;;;;1743100;28;20305;-82
2024/01/15 06:40:08;;;;;;;17.95;12.93;;;;;;;;;;1742520;28;20226;-78
2024/01/15 06:41:00;;;;;;;16.73;11.70;;;;;;;;;;1740553;28;20580;-76
2024/01/15 06:41:52;;;;;;;15.65;11.20;;;;;;;;;;1741410;28;20238;-75
2024/01/15 06:42:44;;;;;;;16.30;12.05;;;;;;;;;;1741364;28;20214;-75
2024/01/15 06:43:37;;;;;;;16.23;12.05;;;;;;;;;;1741321;28;20237;-76
2024/01/15 06:44:28;;;;;;;15.60;11.80;;;;;;;;;;1741427;28;20296;-76
2024/01/15 06:45:19;;;;;;;16.35;11.60;;;;;;;;;;1741388;28;20655;-76
2024/01/15 06:46:11;;;;;;;15.30;12.20;;;;;;;;;;1741351;28;20461;-76
2024/01/15 06:47:04;;;;;;;16.05;11.18;;;;;;;;;;1740795;28;20660;-75
2024/01/15 06:47:55;;;;;;;16.58;12.18;;;;;;;;;;1741426;28;20214;-76
2024/01/15 06:48:47;;;;;;;17.17;11.82;;;;;;;;;;1740923;28;20648;-76
2024/01/15 06:49:39;;;;;;;15.30;11.35;;;;;;;;;;1740515;28;20232;-76
2024/01/15 06:50:30;;;;;;;18.00;11.55;;;;;;;;;;1741385;28;20245;-75
2024/01/15 06:51:22;;;;;;;14.85;11.23;;;;;;;;;;1741413;28;20256;-75
2024/01/15 06:52:13;;;;;;;15.38;11.27;;;;;;;;;;1741086;28;20210;-76
2024/01/15 06:53:05;;;;;;;17.85;11.77;;;;;;;;;;1741447;28;20192;-76
2024/01/15 06:53:57;;;;;;;15.55;11.32;;;;;;;;;;1741234;28;20199;-75
2024/01/15 06:54:48;;;;;;;19.95;11.00;;;;;;;;;;1741227;28;20211;-76
2024/01/15 06:55:39;;;;;;;15.30;10.77;;;;;;;;;;1741177;28;20227;-75
2024/01/15 06:56:31;;;;;;;15.85;11.50;;;;;;;;;;1741305;28;20289;-76
2024/01/15 06:57:22;;;;;;;15.57;10.98;;;;;;;;;;1741264;28;20203;-75
2024/01/15 06:58:13;;;;;;;14.45;10.40;;;;;;;;;;1741319;28;20262;-76
2024/01/15 06:59:05;;;;;;;16.33;11.27;;;;;;;;;;1741279;28;20219;-75
2024/01/15 06:59:56;;;;;;;13.18;10.35;;;;;;;;;;1740567;28;20200;-75
2024/01/15 07:00:47;;;;;;;15.43;11.00;;;;;;;;;;1740285;28;20203;-74
2024/01/15 07:01:40;;;;;;;16.00;10.82;;;;;;;;;;1739208;28;20195;-73
2024/01/15 07:02:32;;;;;;;14.73;10.40;;;;;;;;;;1740523;28;20207;-75
2024/01/15 07:03:24;;;;;;;15.35;10.15;;;;;;;;;;1740902;28;20218;-74
2024/01/15 07:04:16;;;;;;;15.35;10.52;;;;;;;;;;1742221;28;20199;-75
2024/01/15 07:05:07;;;;;;;13.77;10.05;;;;;;;;;;1741075;28;20257;-74
2024/01/15 07:05:59;;;;;;;16.42;10.45;;;;;;;;;;1740406;28;20203;-75
2024/01/15 07:06:50;;;;;;;12.45;9.65;;;;;;;;;;1740469;28;20576;-74
2024/01/15 07:07:41;;;;;;;13.45;9.77;;;;;;;;;;1740637;28;20198;-72
2024/01/15 07:08:33;;;;;;;15.13;10.15;;;;;;;;;;1739821;28;20199;-75
2024/01/15 07:09:25;;;;;;;13.30;9.45;;;;;;;;;;1741042;28;20207;-76
2024/01/15 07:10:16;;;;;;;12.82;9.45;;;;;;;;;;1740297;28;20225;-76
2024/01/15 07:11:08;;;;;;;13.88;10.45;;;;;;;;;;1744426;28;20194;-77
2024/01/15 07:11:59;;;;;;;11.93;9.75;;;;;;;;;;1744402;28;20625;-77
2024/01/15 07:12:50;;;;;;;16.27;9.40;;;;;;;;;;1747249;28;20214;-77
2024/01/15 07:13:42;;;;;;;11.90;8.95;;;;;;;;;;1741636;28;20199;-78
2024/01/15 07:14:34;;;;;;;12.25;9.38;;;;;;;;;;1741739;28;20214;-78
2024/01/15 07:15:25;;;;;;;15.10;10.25;;;;;;;;;;1741659;28;20280;-77
2024/01/15 07:16:17;;;;;;;11.68;9.73;;;;;;;;;;1741718;28;20199;-77
2024/01/15 07:17:08;;;;;;;13.43;9.60;;;;;;;;;;1741558;28;20581;-78
2024/01/15 07:18:01;;;;;;;14.90;9.40;;;;;;;;;;1741818;28;20207;-77
2024/01/15 07:18:52;;;;;;;13.05;10.13;;;;;;;;;;1741232;28;20262;-77
2024/01/15 07:19:43;;;;;;;13.70;9.65;;;;;;;;;;1738904;28;20195;-78
2024/01/15 07:20:36;;;;;;;15.02;10.05;;;;;;;;;;1741543;28;20576;-77
2024/01/15 07:21:27;;;;;;;14.38;10.10;;;;;;;;;;1741467;28;20211;-78
2024/01/15 07:22:18;;;;;;;13.25;9.60;;;;;;;;;;1741787;28;20203;-77
2024/01/15 07:23:10;;;;;;;12.57;9.90;;;;;;;;;;1741426;28;20203;-77
2024/01/15 07:24:01;;;;;;;12.02;9.27;;;;;;;;;;1741560;28;20199;-77
2024/01/15 07:24:54;;;;;;;12.70;9.90;;;;;;;;;;1741563;28;20195;-77
2024/01/15 07:25:45;;;;;;;11.82;9.48;;;;;;;;;;1741466;28;20199;-77
2024/01/15 07:26:36;;;;;;;14.00;9.80;;;;;;;;;;1741403;28;20199;-77
2024/01/15 07:27:28;;;;;;;14.65;9.88;;;;;;;;;;1741633;28;20199;-77
2024/01/15 07:28:19;;;;;;;14.07;10.30;;;;;;;;;;1741709;28;20695;-77
2024/01/15 07:29:11;;;;;;;13.90;10.00;;;;;;;;;;1741532;28;20226;-77
2024/01/15 07:30:05;;;;;;;14.32;10.10;;;;;;;;;;1741118;28;20219;-78
2024/01/15 07:30:56;;;;;;;11.57;8.80;;;;;;;;;;1741459;28;20211;-78
2024/01/15 07:31:48;;;;;;;14.13;10.07;;;;;;;;;;1741477;28;20199;-76
2024/01/15 07:32:40;;;;;;;14.93;10.90;;;;;;;;;;1741528;28;20287;-77
2024/01/15 07:33:33;;;;;;;13.55;9.80;;;;;;;;;;1741478;28;20726;-78
2024/01/15 07:34:24;;;;;;;14.30;10.10;;;;;;;;;;1741282;28;20474;-77
2024/01/15 07:35:16;;;;;;;14.32;9.77;;;;;;;;;;1741240;28;20261;-76
2024/01/15 07:36:08;;;;;;;14.00;9.60;;;;;;;;;;1741293;28;20695;-77
2024/01/15 07:36:59;;;;;;;13.70;10.13;;;;;;;;;;1741426;28;20696;-76
2024/01/15 07:37:51;;;;;;;13.77;9.93;;;;;;;;;;1741457;28;20200;-78
2024/01/15 07:38:42;;;;;;;14.15;10.63;;;;;;;;;;1741564;28;20214;-77
2024/01/15 07:39:34;;;;;;;14.48;10.07;;;;;;;;;;1741564;28;20249;-77
2024/01/15 07:40:26;;;;;;;11.82;9.00;;;;;;;;;;1741466;28;20203;-77
2024/01/15 07:41:17;;;;;;;13.63;10.88;;;;;;;;;;1741626;28;20227;-77
2024/01/15 07:42:09;;;;;;;15.73;11.20;;;;;;;;;;1741334;28;20207;-77
2024/01/15 07:43:00;;;;;;;16.00;11.30;;;;;;;;;;1741397;28;20222;-77
2024/01/15 07:43:51;;;;;;;15.60;12.55;;;;;;;;;;1741259;28;20191;-77
2024/01/15 07:44:44;;;;;;;13.27;10.63;;;;;;;;;;1741272;28;20206;-77
2024/01/15 07:45:36;;;;;;;13.38;9.75;;;;;;;;;;1741499;28;20723;-77
2024/01/15 07:46:28;;;;;;;13.45;10.40;;;;;;;;;;1741363;28;20203;-77
2024/01/15 07:47:19;;;;;;;14.57;10.45;;;;;;;;;;1741653;28;20199;-77
2024/01/15 07:48:10;;;;;;;13.25;9.45;;;;;;;;;;1741229;28;20203;-78
2024/01/15 07:49:05;;;;;;;14.00;10.00;;;;;;;;;;1741314;28;20306;-77
2024/01/15 07:49:56;;;;;;;13.68;10.30;;;;;;;;;;1740967;28;20252;-77
2024/01/15 07:50:48;;;;;;;14.18;10.15;;;;;;;;;;1741331;28;20265;-77
2024/01/15 07:51:40;;;;;;;13.40;9.77;;;;;;;;;;1741538;28;20203;-77
2024/01/15 07:52:31;;;;;;;11.27;9.10;;;;;;;;;;1741611;28;20674;-77
2024/01/15 07:53:23;;;;;;;14.80;10.25;;;;;;;;;;1741312;28;20286;-77
2024/01/15 07:54:14;;;;;;;15.13;9.90;;;;;;;;;;1741338;28;20681;-78
2024/01/15 07:55:05;;;;;;;14.55;9.85;;;;;;;;;;1741374;28;20221;-78
2024/01/15 07:55:58;;;;;;;12.25;9.55;;;;;;;;;;1741411;28;20222;-77
2024/01/15 07:56:56;;;;;;;14.05;10.27;;;;;;;;;;1741312;28;20297;-77
2024/01/15 07:57:48;;;;;;;12.13;9.43;;;;;;;;;;1741391;28;20574;-77
2024/01/15 07:58:39;;;;;;;12.77;9.52;;;;;;;;;;1741256;28;20211;-78
2024/01/15 07:59:30;;;;;;;10.75;8.75;;;;;;;;;;1741289;28;20198;-76
2024/01/15 08:00:22;;;;;;;14.32;10.15;;;;;;;;;;1741209;28;20285;-77
2024/01/15 08:01:13;;;;;;;13.35;8.93;;;;;;;;;;1741349;28;20509;-77
2024/01/15 08:02:04;;;;;;;12.38;9.45;;;;;;;;;;1741358;28;20725;-77
2024/01/15 08:02:56;;;;;;;10.95;8.63;;;;;;;;;;1741124;28;20286;-76
2024/01/15 08:03:48;;;;;;;13.70;9.63;;;;;;;;;;1741374;28;20202;-77
2024/01/15 08:04:41;;;;;;;12.60;9.05;;;;;;;;;;1741419;28;20218;-77
2024/01/15 08:05:32;;;;;;;12.20;9.27;;;;;;;;;;1741469;28;20678;-78
2024/01/15 08:06:23;;;;;;;12.90;9.55;;;;;;;;;;1741405;28;20191;-77
2024/01/15 08:07:15;;;;;;;10.02;7.88;;;;;;;;;;1741605;28;20249;-77
2024/01/15 08:08:06;;;;;;;12.07;8.75;;;;;;;;;;1741458;28;20215;-77
2024/01/15 08:08:59;;;;;;;13.13;9.27;;;;;;;;;;1741187;28;20223;-76
2024/01/15 08:09:50;;;;;;;13.73;9.27;;;;;;;;;;1741110;28;21021;-77
2024/01/15 08:10:42;;;;;;;12.52;8.75;;;;;;;;;;1741360;28;20207;-77
2024/01/15 08:11:33;;;;;;;13.32;9.52;;;;;;;;;;1741350;28;20203;-77
2024/01/15 08:12:25;;;;;;;12.80;9.15;;;;;;;;;;1741358;28;20256;-77
2024/01/15 08:13:16;;;;;;;11.95;8.95;;;;;;;;;;1741464;28;20690;-77
2024/01/15 08:14:08;;;;;;;11.82;9.45;;;;;;;;;;1741300;28;20257;-77
2024/01/15 08:14:59;;;;;;;13.25;8.85;;;;;;;;;;1734489;28;20687;-77
2024/01/15 08:15:51;;;;;;;11.65;9.18;;;;;;;;;;1734511;28;20228;-78
2024/01/15 08:16:43;;;;;;;11.48;8.40;;;;;;;;;;1741015;28;20199;-78
2024/01/15 08:17:34;;;;;;;11.27;8.40;;;;;;;;;;1742878;28;20273;-77
2024/01/15 08:18:26;;;;;;;10.70;8.48;;;;;;;;;;1742700;28;20226;-77
2024/01/15 08:20:12;;;;;;;14.13;9.43;;;;;;;;;;1726700;28;20642;-82
2024/01/15 08:21:04;;;;;;;11.73;9.18;;;;;;;;;;1729919;28;20204;-82
2024/01/15 08:21:55;;;;;;;11.32;8.45;;;;;;;;;;1730007;28;20208;-82
2024/01/15 08:22:48;;;;;;;14.18;9.18;;;;;;;;;;1729934;28;20196;-82
2024/01/15 08:23:39;;;;;;;13.38;9.60;;;;;;;;;;1729848;28;20217;-82
2024/01/15 08:24:31;;;;;;;12.82;8.55;;;;;;;;;;1729807;28;20199;-82
2024/01/15 08:25:22;;;;;;;12.65;10.02;;;;;;;;;;1729737;28;20247;-83
2024/01/15 08:26:14;;;;;;;12.30;8.57;;;;;;;;;;1730029;28;20203;-82
2024/01/15 08:27:05;;;;;;;13.15;9.85;;;;;;;;;;1730000;28;20212;-82
2024/01/15 08:27:57;;;;;;;11.52;9.27;;;;;;;;;;1729782;28;20308;-82
2024/01/15 08:28:49;;;;;;;15.23;10.10;;;;;;;;;;1730199;28;20196;-82
2024/01/15 08:29:40;;;;;;;13.20;9.65;;;;;;;;;;1729381;28;20234;-82
2024/01/15 08:30:32;;;;;;;13.05;9.10;;;;;;;;;;1729796;28;20653;-83
2024/01/15 08:31:23;;;;;;;10.68;8.48;;;;;;;;;;1728787;28;20196;-82
2024/01/15 08:32:15;;;;;;;12.45;9.15;;;;;;;;;;1729913;28;20254;-82
2024/01/15 08:33:07;;;;;;;14.40;9.30;;;;;;;;;;1729836;28;20223;-82
2024/01/15 08:33:59;;;;;;;12.15;8.90;;;;;;;;;;1729812;28;20209;-82
2024/01/15 08:34:52;;;;;;;10.52;8.30;;;;;;;;;;1729924;28;20346;-82
2024/01/15 08:35:45;;;;;;;13.25;9.70;;;;;;;;;;1729502;28;20236;-82
2024/01/15 08:36:36;;;;;;;13.10;8.63;;;;;;;;;;1730279;28;20342;-82
2024/01/15 08:37:28;;;;;;;12.57;10.15;;;;;;;;;;1729655;28;20208;-82
2024/01/15 08:38:20;;;;;;;12.10;7.97;;;;;;;;;;1729985;28;20205;-82
2024/01/15 08:39:12;;;;;;;12.90;9.27;;;;;;;;;;1729987;28;20200;-82
2024/01/15 08:40:03;;;;;;;10.75;7.82;;;;;;;;;;1729761;28;20220;-83
2024/01/15 08:40:56;;;;;;;11.30;8.45;;;;;;;;;;1729961;28;20210;-82
2024/01/15 08:41:48;;;;;;;11.20;8.70;;;;;;;;;;1730606;28;20202;-82
2024/01/15 08:42:39;;;;;;;11.63;7.78;;;;;;;;;;1731417;28;20315;-81
2024/01/15 08:43:30;;;;;;;13.13;9.52;;;;;;;;;;1731330;28;20211;-82
2024/01/15 08:44:22;;;;;;;11.45;7.65;;;;;;;;;;1731951;28;20201;-81
2024/01/15 08:45:14;;;;;;;14.07;7.75;;;;;;;;;;1732611;28;20213;-81
2024/01/15 08:46:06;;;;;;;12.10;8.30;;;;;;;;;;1731706;28;20192;-81
2024/01/15 08:46:58;;;;;;;11.73;7.85;;;;;;;;;;1731526;28;20208;-82
2024/01/15 08:47:50;;;;;;;10.30;7.63;;;;;;;;;;1731281;28;20200;-82
2024/01/15 08:48:41;;;;;;;11.55;7.53;;;;;;;;;;1731076;28;20558;-82
2024/01/15 08:49:33;;;;;;;9.65;7.47;;;;;;;;;;1731019;28;20207;-82
2024/01/15 08:50:24;;;;;;;10.10;7.35;;;;;;;;;;1730850;28;20576;-82
2024/01/15 08:51:18;;;;;;;11.70;8.27;;;;;;;;;;1731415;28;20625;-82
2024/01/15 08:52:10;;;;;;;12.30;8.52;;;;;;;;;;1730953;28;20202;-81
2024/01/15 08:53:01;;;;;;;10.52;6.68;;;;;;;;;;1730987;28;20673;-81
2024/01/15 08:53:53;;;;;;;10.80;7.75;;;;;;;;;;1731105;28;20227;-82
2024/01/15 08:54:44;;;;;;;11.80;8.10;;;;;;;;;;1731325;28;20205;-81
2024/01/15 08:55:36;;;;;;;10.30;7.30;;;;;;;;;;1731040;28;20280;-81
2024/01/15 08:56:27;;;;;;;11.00;7.53;;;;;;;;;;1730901;28;20346;-81
2024/01/15 08:57:20;;;;;;;12.55;7.70;;;;;;;;;;1731259;28;20208;-82
2024/01/15 08:58:11;;;;;;;8.95;7.05;;;;;;;;;;1731703;28;20209;-81
2024/01/15 08:59:03;;;;;;;12.30;7.00;;;;;;;;;;1730945;28;20689;-82
2024/01/15 08:59:54;;;;;;;10.02;6.75;;;;;;;;;;1730696;28;20224;-82
2024/01/15 09:00:45;;;;;;;9.90;6.75;;;;;;;;;;1730785;28;20204;-82
2024/01/15 09:01:37;;;;;;;9.80;6.50;;;;;;;;;;1731226;28;20295;-82
2024/01/15 09:02:28;;;;;;;10.05;6.95;;;;;;;;;;1730758;28;20204;-82
2024/01/15 09:03:20;;;;;;;10.30;6.65;;;;;;;;;;1730990;28;20196;-82
2024/01/15 09:04:11;;;;;;;9.40;6.78;;;;;;;;;;1730986;28;20204;-82
2024/01/15 09:05:04;;;;;;;8.70;6.22;;;;;;;;;;1731049;28;20231;-82
2024/01/15 09:05:56;;;;;;;9.85;7.18;;;;;;;;;;1730699;28;20200;-82
2024/01/15 09:06:49;;;;;;;8.90;6.70;;;;;;;;;;1730348;28;20204;-82
2024/01/15 09:07:41;;;;;;;9.35;6.63;;;;;;;;;;1730676;28;20197;-82
2024/01/15 09:08:32;;;;;;;7.43;5.88;;;;;;;;;;1731130;28;20673;-82
2024/01/15 09:09:24;;;;;;;10.20;6.10;;;;;;;;;;1730656;28;20204;-82
2024/01/15 09:10:16;;;;;;;8.02;6.03;;;;;;;;;;1731511;28;20212;-82
2024/01/15 09:11:08;;;;;;;9.27;6.68;;;;;;;;;;1732212;28;20195;-82
2024/01/15 09:11:59;;;;;;;10.38;6.60;;;;;;;;;;1731889;28;20211;-82
2024/01/15 09:12:50;;;;;;;10.05;6.68;;;;;;;;;;1731604;28;20197;-81
2024/01/15 09:13:42;;;;;;;9.05;6.57;;;;;;;;;;1731369;28;20212;-82
2024/01/15 09:14:34;;;;;;;8.98;6.60;;;;;;;;;;1731626;28;20220;-82
2024/01/15 09:15:25;;;;;;;7.45;6.25;;;;;;;;;;1731758;28;20224;-82
2024/01/15 09:16:17;;;;;;;10.00;7.03;;;;;;;;;;1731362;28;20640;-82
2024/01/15 09:17:08;;;;;;;8.48;5.85;;;;;;;;;;1732301;28;20212;-82
2024/01/15 09:17:59;;;;;;;8.32;6.55;;;;;;;;;;1732426;28;20224;-82
2024/01/15 09:18:51;;;;;;;8.60;6.13;;;;;;;;;;1732909;28;20224;-82
2024/01/15 09:19:42;;;;;;;9.02;6.70;;;;;;;;;;1732086;28;20378;-82
2024/01/15 09:20:33;;;;;;;6.95;5.65;;;;;;;;;;1731999;28;20205;-82
2024/01/15 09:21:26;;;;;;;8.65;6.00;;;;;;;;;;1732134;28;20288;-83
2024/01/15 09:22:18;;;;;;;8.30;5.60;;;;;;;;;;1732389;28;20212;-81
2024/01/15 09:23:10;;;;;;;7.20;5.57;;;;;;;;;;1732820;28;20201;-82
2024/01/15 09:24:01;;;;;;;7.82;5.80;;;;;;;;;;1732543;28;20196;-82
2024/01/15 09:24:52;;;;;;;8.27;5.80;;;;;;;;;;1733096;28;20204;-81
2024/01/15 09:25:44;;;;;;;8.07;5.90;;;;;;;;;;1733008;28;20203;-82
2024/01/15 09:26:35;;;;;;;7.90;5.95;;;;;;;;;;1733423;28;20208;-82
2024/01/15 09:27:27;;;;;;;7.63;5.90;;;;;;;;;;1732654;28;20224;-83
2024/01/15 09:28:19;;;;;;;7.47;5.25;;;;;;;;;;1732931;28;20209;-83
2024/01/15 09:29:10;;;;;;;6.60;5.50;;;;;;;;;;1732996;28;20211;-83
2024/01/15 09:30:01;;;;;;;7.57;5.60;;;;;;;;;;1732370;28;20217;-83
2024/01/15 09:30:53;;;;;;;7.32;5.63;;;;;;;;;;1732581;28;20200;-82
2024/01/15 09:31:44;;;;;;;7.18;5.90;;;;;;;;;;1732948;28;20211;-82
2024/01/15 09:32:35;;;;;;;7.65;5.25;;;;;;;;;;1732293;28;20278;-82
2024/01/15 09:33:27;;;;;;;6.97;5.20;;;;;;;;;;1732505;28;20572;-83
2024/01/15 09:34:18;;;;;;;9.15;5.85;;;;;;;;;;1732449;28;20308;-83
2024/01/15 09:35:10;;;;;;;6.22;4.97;;;;;;;;;;1732644;28;20633;-82
2024/01/15 09:36:03;;;;;;;7.30;5.53;;;;;;;;;;1732256;28;20292;-82
2024/01/15 09:36:55;;;;;;;6.88;5.03;;;;;;;;;;1725309;28;20749;-82
2024/01/15 09:37:48;;;;;;;7.07;5.60;;;;;;;;;;1727398;28;20202;-82
2024/01/15 09:38:41;;;;;;;6.85;5.10;;;;;;;;;;1732752;28;20209;-82
2024/01/15 09:39:33;;;;;;;6.85;5.15;;;;;;;;;;1729349;28;20266;-82
2024/01/15 09:40:24;;;;;;;7.40;4.78;;;;;;;;;;1732580;28;20197;-82
2024/01/15 09:41:15;;;;;;;7.40;5.03;;;;;;;;;;1729217;28;20256;-82
2024/01/15 09:42:08;;;;;;;7.38;4.95;;;;;;;;;;1731698;28;20268;-82
2024/01/15 09:43:00;;;;;;;6.45;5.10;;;;;;;;;;1724916;28;20196;-82
2024/01/15 09:43:52;;;;;;;7.40;4.93;;;;;;;;;;1726475;28;20225;-82
2024/01/15 09:44:43;;;;;;;6.80;5.20;;;;;;;;;;1726348;28;20197;-82
2024/01/15 09:45:34;;;;;;;6.95;5.03;;;;;;;;;;1725736;28;20743;-82
2024/01/15 09:46:26;;;;;;;7.20;5.03;;;;;;;;;;1727541;28;20196;-82
2024/01/15 09:47:18;;;;;;;7.10;5.05;;;;;;;;;;1726712;28;20212;-82
2024/01/15 09:48:09;;;;;;;6.78;5.20;;;;;;;;;;1726795;28;20693;-82
2024/01/15 09:49:02;;;;;;;6.05;4.85;;;;;;;;;;1727084;28;20585;-82
2024/01/15 09:49:53;;;;;;;8.27;5.55;;;;;;;;;;1728191;28;20278;-82
2024/01/15 09:50:45;;;;;;;7.80;5.60;;;;;;;;;;1725842;28;20653;-82
2024/01/15 09:51:36;;;;;;;7.40;5.53;;;;;;;;;;1729504;28;20650;-82
2024/01/15 09:52:27;;;;;;;7.20;5.30;;;;;;;;;;1727058;28;20288;-82
2024/01/15 09:53:21;;;;;;;7.32;5.68;;;;;;;;;;1726344;28;20673;-82
2024/01/15 09:54:15;;;;;;;8.48;5.43;;;;;;;;;;1726280;28;20624;-83
2024/01/15 09:55:06;;;;;;;7.18;5.40;;;;;;;;;;1725321;28;20197;-82
2024/01/15 09:55:59;;;;;;;8.48;5.82;;;;;;;;;;1725357;28;20686;-83
2024/01/15 09:56:51;;;;;;;7.88;5.47;;;;;;;;;;1725331;28;20300;-82
2024/01/15 09:57:42;;;;;;;6.95;5.72;;;;;;;;;;1727468;28;20262;-82
2024/01/15 09:58:35;;;;;;;7.43;5.57;;;;;;;;;;1729548;28;20221;-83
2024/01/15 09:59:26;;;;;;;6.80;5.60;;;;;;;;;;1728939;28;20208;-83
2024/01/15 10:00:18;;;;;;;7.63;5.70;;;;;;;;;;1725479;28;20193;-84
2024/01/15 10:01:11;;;;;;;7.57;5.80;;;;;;;;;;1728056;28;20284;-83
2024/01/15 10:02:02;;;;;;;7.13;5.40;;;;;;;;;;1725811;28;20200;-84
2024/01/15 10:02:54;;;;;;;7.70;5.50;;;;;;;;;;1727022;28;20204;-83
2024/01/15 10:03:46;;;;;;;8.38;5.95;;;;;;;;;;1726780;28;20194;-84
2024/01/15 10:04:37;;;;;;;8.02;5.43;;;;;;;;;;1725977;28;20209;-84
2024/01/15 10:05:28;;;;;;;8.68;6.18;;;;;;;;;;1725475;28;20227;-83
2024/01/15 10:06:23;;;;;;;8.20;5.35;;;;;;;;;;1726435;28;20609;-83
2024/01/15 10:07:16;;;;;;;6.78;5.53;;;;;;;;;;1728731;28;20688;-83
2024/01/15 10:08:07;;;;;;;9.23;5.40;;;;;;;;;;1725336;28;20197;-84
2024/01/15 10:09:00;;;;;;;8.55;5.75;;;;;;;;;;1728197;28;20200;-84
2024/01/15 10:09:52;;;;;;;8.00;6.45;;;;;;;;;;1724955;28;20694;-83
2024/01/15 10:10:43;;;;;;;7.82;5.82;;;;;;;;;;1727765;28;20200;-83
2024/01/15 10:11:35;;;;;;;8.40;6.45;;;;;;;;;;1726029;28;20192;-83
2024/01/15 10:12:27;;;;;;;6.53;5.53;;;;;;;;;;1726925;28;20228;-84
2024/01/15 10:13:19;;;;;;;6.75;5.05;;;;;;;;;;1726828;28;20213;-83
2024/01/15 10:14:12;;;;;;;8.13;5.97;;;;;;;;;;1726221;28;20630;-83
2024/01/15 10:15:04;;;;;;;7.68;5.55;;;;;;;;;;1726755;28;20220;-83
2024/01/15 10:15:56;;;;;;;6.28;5.35;;;;;;;;;;1726072;28;20545;-83
2024/01/15 10:16:47;;;;;;;9.00;6.03;;;;;;;;;;1726021;28;20230;-83
2024/01/15 10:17:39;;;;;;;7.78;5.20;;;;;;;;;;1726237;28;20194;-84
2024/01/15 10:18:31;;;;;;;8.18;5.55;;;;;;;;;;1728244;28;20207;-83
2024/01/15 10:19:23;;;;;;;7.30;5.65;;;;;;;;;;1725104;28;20208;-83
2024/01/15 10:20:14;;;;;;;7.43;5.43;;;;;;;;;;1727590;28;20200;-85
2024/01/15 10:21:07;;;;;;;10.70;8.15;;;;;;;;;;1726226;28;20227;-83
2024/01/15 10:21:58;;;;;;;7.07;5.32;;;;;;;;;;1726402;28;20215;-84
2024/01/15 10:22:51;;;;;;;6.93;5.45;;;;;;;;;;1726751;28;20539;-84
2024/01/15 10:23:43;;;;;;;6.85;5.18;;;;;;;;;;1725313;28;20205;-82
2024/01/15 10:24:35;;;;;;;8.93;5.25;;;;;;;;;;1726626;28;20826;-84
2024/01/15 10:25:27;;;;;;;6.60;5.00;;;;;;;;;;1726534;28;20208;-84
2024/01/15 10:26:18;;;;;;;6.97;5.63;;;;;;;;;;1727425;28;20620;-83
2024/01/15 10:27:10;;;;;;;7.57;5.32;;;;;;;;;;1725076;28;20215;-84
2024/01/15 10:28:03;;;;;;;9.00;5.38;;;;;;;;;;1727551;28;20207;-85
2024/01/15 10:28:54;;;;;;;7.30;5.50;;;;;;;;;;1725364;28;20204;-84
2024/01/15 10:29:45;;;;;;;7.10;5.07;;;;;;;;;;1726712;28;20223;-85
2024/01/15 10:30:37;;;;;;;23.15;13.73;;;;;;;;;;1725564;28;20197;-83
2024/01/15 10:31:29;;;;;;;10.25;7.15;;;;;;;;;;1725897;28;20201;-83
2024/01/15 10:32:23;;;;;;;7.53;5.20;;;;;;;;;;1726047;28;20225;-84
2024/01/15 10:33:15;;;;;;;7.22;5.32;;;;;;;;;;1720714;28;20201;-83
2024/01/15 10:34:15;;;;;;;9.57;5.45;;;;;;;;;;1722679;28;20201;-82
2024/01/15 10:35:08;;;;;;;7.90;5.22;;;;;;;;;;1720806;28;20216;-84
2024/01/15 10:36:01;;;;;;;7.13;5.18;;;;;;;;;;1722673;28;20685;-83
2024/01/15 10:36:55;;;;;;;7.25;5.47;;;;;;;;;;1724717;28;20358;-84
2024/01/15 10:37:47;;;;;;;7.70;5.35;;;;;;;;;;1728239;28;20295;-83
2024/01/15 10:38:40;;;;;;;7.80;5.07;;;;;;;;;;1727996;28;20192;-83
2024/01/15 10:39:31;;;;;;;8.05;5.30;;;;;;;;;;1727386;28;20209;-82
2024/01/15 10:40:23;;;;;;;6.20;4.90;;;;;;;;;;1727831;28;20196;-84
2024/01/15 10:41:15;;;;;;;9.07;5.25;;;;;;;;;;1727978;28;20346;-83
2024/01/15 10:42:07;;;;;;;6.82;5.38;;;;;;;;;;1728058;28;20212;-83
2024/01/15 10:42:58;;;;;;;7.57;5.28;;;;;;;;;;1728073;28;20295;-83
2024/01/15 10:43:50;;;;;;;9.77;5.38;;;;;;;;;;1727775;28;20200;-84
2024/01/15 10:44:43;;;;;;;7.03;5.18;;;;;;;;;;1728045;28;20208;-83
2024/01/15 10:45:34;;;;;;;7.53;5.68;;;;;;;;;;1727901;28;20227;-83
2024/01/15 10:46:27;;;;;;;6.07;4.85;;;;;;;;;;1727484;28;20204;-83
2024/01/15 10:47:18;;;;;;;9.32;5.85;;;;;;;;;;1728038;28;20216;-83
2024/01/15 10:48:11;;;;;;;6.95;5.35;;;;;;;;;;1727654;28;20207;-85
2024/01/15 10:49:02;;;;;;;8.43;5.65;;;;;;;;;;1727567;28;20204;-85
2024/01/15 10:49:53;;;;;;;8.07;6.10;;;;;;;;;;1727083;28;20228;-85
2024/01/15 10:50:45;;;;;;;8.02;6.15;;;;;;;;;;1727957;28;20201;-86
2024/01/15 10:51:36;;;;;;;9.73;5.82;;;;;;;;;;1727840;28;20227;-85
2024/01/15 10:52:29;;;;;;;6.90;5.40;;;;;;;;;;1727846;28;20544;-83
2024/01/15 10:53:22;;;;;;;8.57;5.47;;;;;;;;;;1727667;28;20291;-85
2024/01/15 10:54:14;;;;;;;7.70;5.20;;;;;;;;;;1727898;28;20204;-83
2024/01/15 10:55:06;;;;;;;7.95;5.90;;;;;;;;;;1727879;28;20250;-82
2024/01/15 10:55:59;;;;;;;6.65;5.40;;;;;;;;;;1727927;28;20215;-82
2024/01/15 10:56:52;;;;;;;8.63;5.63;;;;;;;;;;1727885;28;20236;-85
2024/01/15 10:57:45;;;;;;;6.60;4.75;;;;;;;;;;1727826;28;20212;-85
2024/01/15 10:58:38;;;;;;;7.20;5.90;;;;;;;;;;1727675;28;20198;-85
2024/01/15 10:59:30;;;;;;;8.20;5.40;;;;;;;;;;1727584;28;20207;-85
2024/01/15 11:00:21;;;;;;;6.93;5.70;;;;;;;;;;1726753;28;20669;-85
2024/01/15 11:01:13;;;;;;;7.32;5.28;;;;;;;;;;1727880;28;20196;-85
2024/01/15 11:02:05;;;;;;;9.07;6.32;;;;;;;;;;1727584;28;20211;-85
2024/01/15 11:02:56;;;;;;;7.20;5.18;;;;;;;;;;1727697;28;20200;-85
2024/01/15 11:03:48;;;;;;;7.07;5.28;;;;;;;;;;1727533;28;20196;-84
2024/01/15 11:04:40;;;;;;;8.30;5.70;;;;;;;;;;1727684;28;20212;-85
2024/01/15 11:05:33;;;;;;;8.02;6.55;;;;;;;;;;1727842;28;20669;-84
2024/01/15 11:06:26;;;;;;;7.55;5.50;;;;;;;;;;1727651;28;20295;-84
2024/01/15 11:07:18;;;;;;;6.60;5.53;;;;;;;;;;1727730;28;20204;-84